sensor_id;sensor_type;location;lat;lon;timestamp;temperature;humidity
51567;DHT22;37657;53.182;5.638;2023-02-11T00:01:48;6.90;99.90
51567;DHT22;37657;53.182;5.638;2023-02-11T00:04:14;6.90;99.90
51567;DHT22;37657;53.182;5.638;2023-02-11T00:06:39;7.00;99.90
51567;DHT22;37657;53.182;5.638;2023-02-11T00:09:05;7.00;99.90
51567;DHT22;37657;53.182;5.638;2023-02-11T00:11:30;7.00;99.90
51567;DHT22;37657;53.182;5.638;2023-02-11T00:14:02;7.00;99.90
51567;DHT22;37657;53.182;5.638;2023-02-11T00:16:28;7.00;99.90
51567;DHT22;37657;53.182;5.638;2023-02-11T00:18:55;6.90;99.90
51567;DHT22;37657;53.182;5.638;2023-02-11T00:21:23;7.00;99.90
51567;DHT22;37657;53.182;5.638;2023-02-11T00:23:50;7.00;99.90
51567;DHT22;37657;53.182;5.638;2023-02-11T00:26:26;6.90;99.90
51567;DHT22;37657;53.182;5.638;2023-02-11T00:28:52;6.90;99.90
51567;DHT22;37657;53.182;5.638;2023-02-11T00:31:19;6.90;99.90
51567;DHT22;37657;53.182;5.638;2023-02-11T00:33:45;7.00;99.90
51567;DHT22;37657;53.182;5.638;2023-02-11T00:36:14;7.10;99.90
51567;DHT22;37657;53.182;5.638;2023-02-11T00:38:42;7.10;99.90
51567;DHT22;37657;53.182;5.638;2023-02-11T00:41:08;7.20;99.90
51567;DHT22;37657;53.182;5.638;2023-02-11T00:43:34;7.10;99.90
51567;DHT22;37657;53.182;5.638;2023-02-11T00:46:00;7.30;99.90
51567;DHT22;37657;53.182;5.638;2023-02-11T00:48:26;7.30;99.90
51567;DHT22;37657;53.182;5.638;2023-02-11T00:50:52;7.30;99.90
51567;DHT22;37657;53.182;5.638;2023-02-11T00:53:17;7.30;99.90
51567;DHT22;37657;53.182;5.638;2023-02-11T00:55:43;7.40;99.90
51567;DHT22;37657;53.182;5.638;2023-02-11T00:58:08;7.40;99.90
51567;DHT22;37657;53.182;5.638;2023-02-11T01:00:34;7.40;99.90
51567;DHT22;37657;53.182;5.638;2023-02-11T01:02:59;7.30;99.90
51567;DHT22;37657;53.182;5.638;2023-02-11T01:05:25;7.30;99.90
51567;DHT22;37657;53.182;5.638;2023-02-11T01:07:50;7.40;99.90
51567;DHT22;37657;53.182;5.638;2023-02-11T01:10:16;7.50;99.90
51567;DHT22;37657;53.182;5.638;2023-02-11T01:12:42;7.50;99.90
51567;DHT22;37657;53.182;5.638;2023-02-11T01:15:11;7.50;99.90
51567;DHT22;37657;53.182;5.638;2023-02-11T01:17:38;7.60;99.90
51567;DHT22;37657;53.182;5.638;2023-02-11T01:20:10;7.60;99.90
51567;DHT22;37657;53.182;5.638;2023-02-11T01:22:37;7.60;99.90
51567;DHT22;37657;53.182;5.638;2023-02-11T01:25:05;7.70;99.90
51567;DHT22;37657;53.182;5.638;2023-02-11T01:27:31;7.70;99.90
51567;DHT22;37657;53.182;5.638;2023-02-11T01:29:56;7.70;99.90
51567;DHT22;37657;53.182;5.638;2023-02-11T01:32:22;7.70;99.90
51567;DHT22;37657;53.182;5.638;2023-02-11T01:34:48;7.70;99.90
51567;DHT22;37657;53.182;5.638;2023-02-11T01:37:13;7.70;99.90
51567;DHT22;37657;53.182;5.638;2023-02-11T01:39:39;7.80;99.90
51567;DHT22;37657;53.182;5.638;2023-02-11T01:42:04;7.90;99.90
51567;DHT22;37657;53.182;5.638;2023-02-11T01:44:32;8.00;99.90
51567;DHT22;37657;53.182;5.638;2023-02-11T01:46:58;8.00;99.90
51567;DHT22;37657;53.182;5.638;2023-02-11T01:49:30;8.00;99.90
51567;DHT22;37657;53.182;5.638;2023-02-11T01:54:58;8.10;99.90
51567;DHT22;37657;53.182;5.638;2023-02-11T01:57:46;8.10;99.90
51567;DHT22;37657;53.182;5.638;2023-02-11T02:00:22;8.00;99.90
51567;DHT22;37657;53.182;5.638;2023-02-11T02:03:05;8.00;99.90
51567;DHT22;37657;53.182;5.638;2023-02-11T02:05:58;8.00;99.90
51567;DHT22;37657;53.182;5.638;2023-02-11T02:08:39;8.00;99.90
51567;DHT22;37657;53.182;5.638;2023-02-11T02:11:07;8.10;99.90
51567;DHT22;37657;53.182;5.638;2023-02-11T02:13:33;8.00;99.90
51567;DHT22;37657;53.182;5.638;2023-02-11T02:16:05;8.10;99.90
51567;DHT22;37657;53.182;5.638;2023-02-11T02:24:54;8.10;99.90
51567;DHT22;37657;53.182;5.638;2023-02-11T02:27:47;8.20;99.90
51567;DHT22;37657;53.182;5.638;2023-02-11T02:30:16;8.20;99.90
51567;DHT22;37657;53.182;5.638;2023-02-11T02:33:13;8.20;99.90
51567;DHT22;37657;53.182;5.638;2023-02-11T02:36:13;8.30;99.90
51567;DHT22;37657;53.182;5.638;2023-02-11T02:38:41;8.20;99.90
51567;DHT22;37657;53.182;5.638;2023-02-11T02:41:12;8.20;99.90
51567;DHT22;37657;53.182;5.638;2023-02-11T02:43:47;8.30;99.90
51567;DHT22;37657;53.182;5.638;2023-02-11T02:46:17;8.30;99.90
51567;DHT22;37657;53.182;5.638;2023-02-11T02:48:44;8.30;99.90
51567;DHT22;37657;53.182;5.638;2023-02-11T02:51:20;8.40;99.90
51567;DHT22;37657;53.182;5.638;2023-02-11T02:56:56;8.40;99.90
51567;DHT22;37657;53.182;5.638;2023-02-11T02:59:42;8.30;99.90
51567;DHT22;37657;53.182;5.638;2023-02-11T03:02:25;8.40;99.90
51567;DHT22;37657;53.182;5.638;2023-02-11T03:07:35;8.50;99.90
51567;DHT22;37657;53.182;5.638;2023-02-11T03:10:49;8.40;99.90
51567;DHT22;37657;53.182;5.638;2023-02-11T03:12:56;8.40;99.90
51567;DHT22;37657;53.182;5.638;2023-02-11T03:15:24;8.40;99.90
51567;DHT22;37657;53.182;5.638;2023-02-11T03:17:51;8.40;99.90
51567;DHT22;37657;53.182;5.638;2023-02-11T03:20:20;8.40;99.90
51567;DHT22;37657;53.182;5.638;2023-02-11T03:22:54;8.40;99.90
51567;DHT22;37657;53.182;5.638;2023-02-11T03:25:27;8.40;99.90
51567;DHT22;37657;53.182;5.638;2023-02-11T03:30:33;8.40;99.90
51567;DHT22;37657;53.182;5.638;2023-02-11T03:33:10;8.30;99.90
51567;DHT22;37657;53.182;5.638;2023-02-11T03:35:56;8.30;99.90
51567;DHT22;37657;53.182;5.638;2023-02-11T03:38:30;8.30;99.90
51567;DHT22;37657;53.182;5.638;2023-02-11T03:40:59;8.30;99.90
51567;DHT22;37657;53.182;5.638;2023-02-11T03:43:32;8.30;99.90
51567;DHT22;37657;53.182;5.638;2023-02-11T03:45:59;8.30;99.90
51567;DHT22;37657;53.182;5.638;2023-02-11T03:48:32;8.40;99.90
51567;DHT22;37657;53.182;5.638;2023-02-11T03:51:01;8.40;99.90
51567;DHT22;37657;53.182;5.638;2023-02-11T03:53:27;8.30;99.90
51567;DHT22;37657;53.182;5.638;2023-02-11T03:55:55;8.40;99.90
51567;DHT22;37657;53.182;5.638;2023-02-11T03:58:22;8.30;99.90
51567;DHT22;37657;53.182;5.638;2023-02-11T04:00:48;8.30;99.90
51567;DHT22;37657;53.182;5.638;2023-02-11T04:03:13;8.40;99.90
51567;DHT22;37657;53.182;5.638;2023-02-11T04:05:39;8.40;99.90
51567;DHT22;37657;53.182;5.638;2023-02-11T04:08:05;8.40;99.90
51567;DHT22;37657;53.182;5.638;2023-02-11T04:10:31;8.40;99.90
51567;DHT22;37657;53.182;5.638;2023-02-11T04:12:57;8.50;99.90
51567;DHT22;37657;53.182;5.638;2023-02-11T04:15:23;8.40;99.90
51567;DHT22;37657;53.182;5.638;2023-02-11T04:17:48;8.50;99.90
51567;DHT22;37657;53.182;5.638;2023-02-11T04:20:14;8.40;99.90
51567;DHT22;37657;53.182;5.638;2023-02-11T04:22:39;8.50;99.90
51567;DHT22;37657;53.182;5.638;2023-02-11T04:25:05;8.50;99.90
51567;DHT22;37657;53.182;5.638;2023-02-11T04:27:31;8.50;99.90
51567;DHT22;37657;53.182;5.638;2023-02-11T04:29:56;8.50;99.90
51567;DHT22;37657;53.182;5.638;2023-02-11T04:32:22;8.50;99.90
51567;DHT22;37657;53.182;5.638;2023-02-11T04:34:48;8.50;99.90
51567;DHT22;37657;53.182;5.638;2023-02-11T04:37:14;8.60;99.90
51567;DHT22;37657;53.182;5.638;2023-02-11T04:39:39;8.60;99.90
51567;DHT22;37657;53.182;5.638;2023-02-11T04:42:05;8.60;99.90
51567;DHT22;37657;53.182;5.638;2023-02-11T04:44:31;8.60;99.90
51567;DHT22;37657;53.182;5.638;2023-02-11T04:46:56;8.60;99.90
51567;DHT22;37657;53.182;5.638;2023-02-11T04:49:22;8.60;99.90
51567;DHT22;37657;53.182;5.638;2023-02-11T04:51:48;8.60;99.90
51567;DHT22;37657;53.182;5.638;2023-02-11T04:54:13;8.60;99.90
51567;DHT22;37657;53.182;5.638;2023-02-11T04:56:39;8.70;99.90
51567;DHT22;37657;53.182;5.638;2023-02-11T04:59:05;8.80;99.90
51567;DHT22;37657;53.182;5.638;2023-02-11T05:01:31;8.80;99.90
51567;DHT22;37657;53.182;5.638;2023-02-11T05:03:57;8.80;99.90
51567;DHT22;37657;53.182;5.638;2023-02-11T05:06:23;8.80;99.90
51567;DHT22;37657;53.182;5.638;2023-02-11T05:08:48;8.80;99.90
51567;DHT22;37657;53.182;5.638;2023-02-11T05:11:17;8.80;99.90
51567;DHT22;37657;53.182;5.638;2023-02-11T05:13:44;8.80;99.90
51567;DHT22;37657;53.182;5.638;2023-02-11T05:16:10;8.90;99.90
51567;DHT22;37657;53.182;5.638;2023-02-11T05:18:37;8.90;99.90
51567;DHT22;37657;53.182;5.638;2023-02-11T05:21:11;8.90;99.90
51567;DHT22;37657;53.182;5.638;2023-02-11T05:23:38;8.80;99.90
51567;DHT22;37657;53.182;5.638;2023-02-11T05:26:04;8.80;99.90
51567;DHT22;37657;53.182;5.638;2023-02-11T05:28:30;8.80;99.90
51567;DHT22;37657;53.182;5.638;2023-02-11T05:30:55;8.80;99.90
51567;DHT22;37657;53.182;5.638;2023-02-11T05:33:21;8.70;99.90
51567;DHT22;37657;53.182;5.638;2023-02-11T05:35:47;8.70;99.90
51567;DHT22;37657;53.182;5.638;2023-02-11T05:38:13;8.70;99.90
51567;DHT22;37657;53.182;5.638;2023-02-11T05:40:38;8.70;99.90
51567;DHT22;37657;53.182;5.638;2023-02-11T05:43:04;8.70;99.90
51567;DHT22;37657;53.182;5.638;2023-02-11T05:45:30;8.70;99.90
51567;DHT22;37657;53.182;5.638;2023-02-11T05:47:56;8.60;99.90
51567;DHT22;37657;53.182;5.638;2023-02-11T05:50:22;8.50;99.90
51567;DHT22;37657;53.182;5.638;2023-02-11T05:52:47;8.40;99.90
51567;DHT22;37657;53.182;5.638;2023-02-11T05:55:13;8.30;99.90
51567;DHT22;37657;53.182;5.638;2023-02-11T05:57:38;8.40;99.90
51567;DHT22;37657;53.182;5.638;2023-02-11T06:00:05;8.30;99.90
51567;DHT22;37657;53.182;5.638;2023-02-11T06:02:31;8.30;99.90
51567;DHT22;37657;53.182;5.638;2023-02-11T06:04:56;8.30;99.90
51567;DHT22;37657;53.182;5.638;2023-02-11T06:07:22;8.30;99.90
51567;DHT22;37657;53.182;5.638;2023-02-11T06:09:47;8.30;99.90
51567;DHT22;37657;53.182;5.638;2023-02-11T06:12:13;8.30;99.90
51567;DHT22;37657;53.182;5.638;2023-02-11T06:14:38;8.30;99.90
51567;DHT22;37657;53.182;5.638;2023-02-11T06:17:04;8.30;99.90
51567;DHT22;37657;53.182;5.638;2023-02-11T06:19:30;8.30;99.90
51567;DHT22;37657;53.182;5.638;2023-02-11T06:21:56;8.30;99.90
51567;DHT22;37657;53.182;5.638;2023-02-11T06:24:22;8.20;99.90
51567;DHT22;37657;53.182;5.638;2023-02-11T06:26:47;8.20;99.90
51567;DHT22;37657;53.182;5.638;2023-02-11T06:29:13;8.20;99.90
51567;DHT22;37657;53.182;5.638;2023-02-11T06:31:38;8.20;99.90
51567;DHT22;37657;53.182;5.638;2023-02-11T06:34:06;8.30;99.90
51567;DHT22;37657;53.182;5.638;2023-02-11T06:36:32;8.20;99.90
51567;DHT22;37657;53.182;5.638;2023-02-11T06:38:58;8.20;99.90
51567;DHT22;37657;53.182;5.638;2023-02-11T06:41:23;8.30;99.90
51567;DHT22;37657;53.182;5.638;2023-02-11T06:43:49;8.30;99.90
51567;DHT22;37657;53.182;5.638;2023-02-11T06:46:16;8.30;99.90
51567;DHT22;37657;53.182;5.638;2023-02-11T06:48:41;8.20;99.90
51567;DHT22;37657;53.182;5.638;2023-02-11T06:51:09;8.20;99.90
51567;DHT22;37657;53.182;5.638;2023-02-11T06:53:36;8.20;99.90
51567;DHT22;37657;53.182;5.638;2023-02-11T06:56:08;8.20;99.90
51567;DHT22;37657;53.182;5.638;2023-02-11T06:58:34;8.30;99.90
51567;DHT22;37657;53.182;5.638;2023-02-11T07:01:04;8.30;99.90
51567;DHT22;37657;53.182;5.638;2023-02-11T07:03:32;8.20;99.90
51567;DHT22;37657;53.182;5.638;2023-02-11T07:05:59;8.20;99.90
51567;DHT22;37657;53.182;5.638;2023-02-11T07:08:24;8.20;99.90
51567;DHT22;37657;53.182;5.638;2023-02-11T07:10:50;8.20;99.90
51567;DHT22;37657;53.182;5.638;2023-02-11T07:13:15;8.20;99.90
51567;DHT22;37657;53.182;5.638;2023-02-11T07:15:41;8.10;99.90
51567;DHT22;37657;53.182;5.638;2023-02-11T07:18:06;8.20;99.90
51567;DHT22;37657;53.182;5.638;2023-02-11T07:20:32;8.10;99.90
51567;DHT22;37657;53.182;5.638;2023-02-11T07:22:58;8.10;99.90
51567;DHT22;37657;53.182;5.638;2023-02-11T07:25:24;8.10;99.90
51567;DHT22;37657;53.182;5.638;2023-02-11T07:27:50;8.10;99.90
51567;DHT22;37657;53.182;5.638;2023-02-11T07:30:15;8.20;99.90
51567;DHT22;37657;53.182;5.638;2023-02-11T07:32:41;8.10;99.90
51567;DHT22;37657;53.182;5.638;2023-02-11T07:35:07;8.10;99.90
51567;DHT22;37657;53.182;5.638;2023-02-11T07:37:33;8.00;99.90
51567;DHT22;37657;53.182;5.638;2023-02-11T07:39:59;8.00;99.90
51567;DHT22;37657;53.182;5.638;2023-02-11T07:42:25;8.10;99.90
51567;DHT22;37657;53.182;5.638;2023-02-11T07:44:50;8.10;99.90
51567;DHT22;37657;53.182;5.638;2023-02-11T07:47:16;8.10;99.90
51567;DHT22;37657;53.182;5.638;2023-02-11T07:49:41;8.20;99.90
51567;DHT22;37657;53.182;5.638;2023-02-11T07:52:07;8.20;99.90
51567;DHT22;37657;53.182;5.638;2023-02-11T07:54:32;8.30;99.90
51567;DHT22;37657;53.182;5.638;2023-02-11T07:56:58;8.30;99.90
51567;DHT22;37657;53.182;5.638;2023-02-11T07:59:24;8.30;99.90
51567;DHT22;37657;53.182;5.638;2023-02-11T08:01:50;8.30;99.90
51567;DHT22;37657;53.182;5.638;2023-02-11T08:04:16;8.30;99.90
51567;DHT22;37657;53.182;5.638;2023-02-11T08:06:42;8.40;99.90
51567;DHT22;37657;53.182;5.638;2023-02-11T08:09:13;8.30;99.90
51567;DHT22;37657;53.182;5.638;2023-02-11T08:11:39;8.40;99.90
51567;DHT22;37657;53.182;5.638;2023-02-11T08:14:05;8.30;99.90
51567;DHT22;37657;53.182;5.638;2023-02-11T08:16:33;8.40;99.90
51567;DHT22;37657;53.182;5.638;2023-02-11T08:19:01;8.40;99.90
51567;DHT22;37657;53.182;5.638;2023-02-11T08:21:27;8.50;99.90
51567;DHT22;37657;53.182;5.638;2023-02-11T08:23:53;8.50;99.90
51567;DHT22;37657;53.182;5.638;2023-02-11T08:26:22;8.40;99.90
51567;DHT22;37657;53.182;5.638;2023-02-11T08:28:49;8.40;99.90
51567;DHT22;37657;53.182;5.638;2023-02-11T08:31:19;8.50;99.90
51567;DHT22;37657;53.182;5.638;2023-02-11T08:33:44;8.60;99.90
51567;DHT22;37657;53.182;5.638;2023-02-11T08:36:13;8.60;99.90
51567;DHT22;37657;53.182;5.638;2023-02-11T08:38:39;8.70;99.90
51567;DHT22;37657;53.182;5.638;2023-02-11T08:41:05;8.70;99.90
51567;DHT22;37657;53.182;5.638;2023-02-11T08:43:30;8.70;99.90
51567;DHT22;37657;53.182;5.638;2023-02-11T08:45:58;8.70;99.90
51567;DHT22;37657;53.182;5.638;2023-02-11T08:48:24;8.80;99.90
51567;DHT22;37657;53.182;5.638;2023-02-11T08:50:49;8.80;99.90
51567;DHT22;37657;53.182;5.638;2023-02-11T08:53:15;8.90;99.90
51567;DHT22;37657;53.182;5.638;2023-02-11T08:55:50;8.80;99.90
51567;DHT22;37657;53.182;5.638;2023-02-11T08:58:16;8.80;99.90
51567;DHT22;37657;53.182;5.638;2023-02-11T09:00:42;8.90;99.90
51567;DHT22;37657;53.182;5.638;2023-02-11T09:03:10;8.90;99.90
51567;DHT22;37657;53.182;5.638;2023-02-11T09:05:44;8.80;99.90
51567;DHT22;37657;53.182;5.638;2023-02-11T09:08:10;8.90;99.90
51567;DHT22;37657;53.182;5.638;2023-02-11T09:10:36;8.90;99.90
51567;DHT22;37657;53.182;5.638;2023-02-11T09:13:03;9.00;99.90
51567;DHT22;37657;53.182;5.638;2023-02-11T09:15:28;9.10;99.90
51567;DHT22;37657;53.182;5.638;2023-02-11T09:17:54;9.10;99.90
51567;DHT22;37657;53.182;5.638;2023-02-11T09:20:19;9.10;99.90
51567;DHT22;37657;53.182;5.638;2023-02-11T09:22:46;9.10;99.90
51567;DHT22;37657;53.182;5.638;2023-02-11T09:25:12;9.10;99.90
51567;DHT22;37657;53.182;5.638;2023-02-11T09:27:37;9.10;99.90
51567;DHT22;37657;53.182;5.638;2023-02-11T09:30:03;9.10;99.90
51567;DHT22;37657;53.182;5.638;2023-02-11T09:32:29;9.20;99.90
51567;DHT22;37657;53.182;5.638;2023-02-11T09:34:54;9.20;99.90
51567;DHT22;37657;53.182;5.638;2023-02-11T09:37:20;9.10;99.90
51567;DHT22;37657;53.182;5.638;2023-02-11T09:39:46;9.20;99.90
51567;DHT22;37657;53.182;5.638;2023-02-11T09:42:19;9.20;99.90
51567;DHT22;37657;53.182;5.638;2023-02-11T09:44:49;9.10;99.90
51567;DHT22;37657;53.182;5.638;2023-02-11T09:47:23;9.20;99.90
51567;DHT22;37657;53.182;5.638;2023-02-11T09:49:54;9.20;99.90
51567;DHT22;37657;53.182;5.638;2023-02-11T09:52:50;9.20;99.90
51567;DHT22;37657;53.182;5.638;2023-02-11T09:55:24;9.20;99.90
51567;DHT22;37657;53.182;5.638;2023-02-11T09:57:51;9.20;99.90
51567;DHT22;37657;53.182;5.638;2023-02-11T10:00:23;9.20;99.90
51567;DHT22;37657;53.182;5.638;2023-02-11T10:11:05;9.30;99.90
51567;DHT22;37657;53.182;5.638;2023-02-11T10:14:02;9.30;99.90
51567;DHT22;37657;53.182;5.638;2023-02-11T10:22:18;9.50;99.90
51567;DHT22;37657;53.182;5.638;2023-02-11T10:24:57;9.50;99.90
51567;DHT22;37657;53.182;5.638;2023-02-11T10:27:30;9.50;99.90
51567;DHT22;37657;53.182;5.638;2023-02-11T10:30:03;9.50;99.90
51567;DHT22;37657;53.182;5.638;2023-02-11T10:33:11;9.50;99.90
51567;DHT22;37657;53.182;5.638;2023-02-11T10:35:38;9.60;99.90
51567;DHT22;37657;53.182;5.638;2023-02-11T10:38:03;9.50;99.90
51567;DHT22;37657;53.182;5.638;2023-02-11T10:40:30;9.50;99.90
51567;DHT22;37657;53.182;5.638;2023-02-11T10:43:05;9.50;99.90
51567;DHT22;37657;53.182;5.638;2023-02-11T10:45:38;9.40;99.90
51567;DHT22;37657;53.182;5.638;2023-02-11T10:51:22;9.40;99.90
51567;DHT22;37657;53.182;5.638;2023-02-11T10:54:09;9.40;99.90
51567;DHT22;37657;53.182;5.638;2023-02-11T10:56:49;9.40;99.90
51567;DHT22;37657;53.182;5.638;2023-02-11T10:59:36;9.50;99.90
51567;DHT22;37657;53.182;5.638;2023-02-11T11:02:25;9.50;99.90
51567;DHT22;37657;53.182;5.638;2023-02-11T11:04:58;9.60;99.90
51567;DHT22;37657;53.182;5.638;2023-02-11T11:07:27;9.50;99.90
51567;DHT22;37657;53.182;5.638;2023-02-11T11:09:56;9.60;99.90
51567;DHT22;37657;53.182;5.638;2023-02-11T11:12:33;9.60;99.90
51567;DHT22;37657;53.182;5.638;2023-02-11T11:15:15;9.70;99.90
51567;DHT22;37657;53.182;5.638;2023-02-11T11:17:43;9.70;99.90
51567;DHT22;37657;53.182;5.638;2023-02-11T11:20:28;9.70;99.90
51567;DHT22;37657;53.182;5.638;2023-02-11T11:23:17;9.80;99.90
51567;DHT22;37657;53.182;5.638;2023-02-11T11:26:06;9.70;99.90
51567;DHT22;37657;53.182;5.638;2023-02-11T11:31:20;9.80;99.90
51567;DHT22;37657;53.182;5.638;2023-02-11T11:33:47;9.80;99.90
51567;DHT22;37657;53.182;5.638;2023-02-11T11:36:16;9.80;99.90
51567;DHT22;37657;53.182;5.638;2023-02-11T11:38:53;9.90;99.90
51567;DHT22;37657;53.182;5.638;2023-02-11T11:44:03;9.90;99.90
51567;DHT22;37657;53.182;5.638;2023-02-11T11:46:43;9.90;99.90
51567;DHT22;37657;53.182;5.638;2023-02-11T11:49:30;9.90;99.90
51567;DHT22;37657;53.182;5.638;2023-02-11T11:52:24;10.00;99.90
51567;DHT22;37657;53.182;5.638;2023-02-11T11:55:04;9.90;99.90
51567;DHT22;37657;53.182;5.638;2023-02-11T11:57:33;10.00;99.90
51567;DHT22;37657;53.182;5.638;2023-02-11T12:00:01;9.90;99.90
51567;DHT22;37657;53.182;5.638;2023-02-11T12:02:49;9.90;99.90
51567;DHT22;37657;53.182;5.638;2023-02-11T12:10:57;9.90;99.90
51567;DHT22;37657;53.182;5.638;2023-02-11T12:13:46;10.00;99.90
51567;DHT22;37657;53.182;5.638;2023-02-11T12:16:22;10.00;99.90
51567;DHT22;37657;53.182;5.638;2023-02-11T12:27:15;10.00;99.90
51567;DHT22;37657;53.182;5.638;2023-02-11T12:33:15;10.10;99.90
51567;DHT22;37657;53.182;5.638;2023-02-11T12:38:25;10.10;99.90
51567;DHT22;37657;53.182;5.638;2023-02-11T12:41:12;10.10;99.90
51567;DHT22;37657;53.182;5.638;2023-02-11T12:43:41;10.10;99.90
51567;DHT22;37657;53.182;5.638;2023-02-11T12:48:56;10.00;99.90
51567;DHT22;37657;53.182;5.638;2023-02-11T12:54:09;10.00;99.90
51567;DHT22;37657;53.182;5.638;2023-02-11T13:01:53;9.90;99.90
51567;DHT22;37657;53.182;5.638;2023-02-11T13:04:34;9.90;99.90
51567;DHT22;37657;53.182;5.638;2023-02-11T13:07:32;9.90;99.90
51567;DHT22;37657;53.182;5.638;2023-02-11T13:10:03;9.90;99.90
51567;DHT22;37657;53.182;5.638;2023-02-11T13:12:32;9.90;99.90
51567;DHT22;37657;53.182;5.638;2023-02-11T13:15:18;9.90;99.90
51567;DHT22;37657;53.182;5.638;2023-02-11T13:18:01;9.90;99.90
51567;DHT22;37657;53.182;5.638;2023-02-11T13:20:47;9.90;99.90
51567;DHT22;37657;53.182;5.638;2023-02-11T13:23:24;9.90;99.90
51567;DHT22;37657;53.182;5.638;2023-02-11T13:28:34;9.80;99.90
51567;DHT22;37657;53.182;5.638;2023-02-11T13:31:01;9.80;99.90
51567;DHT22;37657;53.182;5.638;2023-02-11T13:33:35;9.90;99.90
51567;DHT22;37657;53.182;5.638;2023-02-11T13:38:28;9.80;99.90
51567;DHT22;37657;53.182;5.638;2023-02-11T13:41:18;9.80;99.90
51567;DHT22;37657;53.182;5.638;2023-02-11T13:43:59;9.80;99.90
51567;DHT22;37657;53.182;5.638;2023-02-11T13:46:26;9.80;99.90
51567;DHT22;37657;53.182;5.638;2023-02-11T13:48:53;9.80;99.90
51567;DHT22;37657;53.182;5.638;2023-02-11T13:51:38;9.80;99.90
51567;DHT22;37657;53.182;5.638;2023-02-11T13:54:06;9.80;99.90
51567;DHT22;37657;53.182;5.638;2023-02-11T13:56:38;9.80;99.90
51567;DHT22;37657;53.182;5.638;2023-02-11T14:02:21;9.90;99.90
51567;DHT22;37657;53.182;5.638;2023-02-11T14:11:01;9.80;99.90
51567;DHT22;37657;53.182;5.638;2023-02-11T14:13:35;9.70;99.90
51567;DHT22;37657;53.182;5.638;2023-02-11T14:16:14;9.70;99.90
51567;DHT22;37657;53.182;5.638;2023-02-11T14:21:18;9.70;99.90
51567;DHT22;37657;53.182;5.638;2023-02-11T14:23:45;9.70;99.90
51567;DHT22;37657;53.182;5.638;2023-02-11T14:31:40;9.60;99.90
51567;DHT22;37657;53.182;5.638;2023-02-11T14:37:02;9.50;99.90
51567;DHT22;37657;53.182;5.638;2023-02-11T14:40:13;9.50;99.90
51567;DHT22;37657;53.182;5.638;2023-02-11T14:42:40;9.50;99.90
51567;DHT22;37657;53.182;5.638;2023-02-11T14:45:14;9.50;99.90
51567;DHT22;37657;53.182;5.638;2023-02-11T14:47:51;9.50;99.90
51567;DHT22;37657;53.182;5.638;2023-02-11T14:50:31;9.40;99.90
51567;DHT22;37657;53.182;5.638;2023-02-11T14:52:58;9.40;99.90
51567;DHT22;37657;53.182;5.638;2023-02-11T14:55:33;9.30;99.90
51567;DHT22;37657;53.182;5.638;2023-02-11T15:00:30;9.30;99.90
51567;DHT22;37657;53.182;5.638;2023-02-11T15:02:56;9.30;99.90
51567;DHT22;37657;53.182;5.638;2023-02-11T15:05:27;9.20;99.90
51567;DHT22;37657;53.182;5.638;2023-02-11T15:08:02;9.30;99.90
51567;DHT22;37657;53.182;5.638;2023-02-11T15:12:59;9.20;99.90
51567;DHT22;37657;53.182;5.638;2023-02-11T15:15:27;9.20;99.90
51567;DHT22;37657;53.182;5.638;2023-02-11T15:17:54;9.20;99.90
51567;DHT22;37657;53.182;5.638;2023-02-11T15:20:27;9.10;99.90
51567;DHT22;37657;53.182;5.638;2023-02-11T15:23:02;9.10;99.90
51567;DHT22;37657;53.182;5.638;2023-02-11T15:25:28;9.00;99.90
51567;DHT22;37657;53.182;5.638;2023-02-11T15:27:56;9.00;99.90
51567;DHT22;37657;53.182;5.638;2023-02-11T15:35:22;9.00;99.90
51567;DHT22;37657;53.182;5.638;2023-02-11T15:37:48;9.00;99.90
51567;DHT22;37657;53.182;5.638;2023-02-11T15:40:20;8.90;99.90
51567;DHT22;37657;53.182;5.638;2023-02-11T15:42:57;8.90;99.90
51567;DHT22;37657;53.182;5.638;2023-02-11T15:45:30;8.80;99.90
51567;DHT22;37657;53.182;5.638;2023-02-11T15:48:16;8.80;99.90
51567;DHT22;37657;53.182;5.638;2023-02-11T15:50:53;8.80;99.90
51567;DHT22;37657;53.182;5.638;2023-02-11T15:53:21;8.80;99.90
51567;DHT22;37657;53.182;5.638;2023-02-11T15:55:49;8.70;99.90
51567;DHT22;37657;53.182;5.638;2023-02-11T15:58:16;8.80;99.90
51567;DHT22;37657;53.182;5.638;2023-02-11T16:00:50;8.60;99.90
51567;DHT22;37657;53.182;5.638;2023-02-11T16:03:23;8.60;99.90
51567;DHT22;37657;53.182;5.638;2023-02-11T16:05:50;8.50;99.90
51567;DHT22;37657;53.182;5.638;2023-02-11T16:08:28;8.50;99.90
51567;DHT22;37657;53.182;5.638;2023-02-11T16:10:59;8.40;99.90
51567;DHT22;37657;53.182;5.638;2023-02-11T16:13:29;8.30;99.90
51567;DHT22;37657;53.182;5.638;2023-02-11T16:16:02;8.30;99.90
51567;DHT22;37657;53.182;5.638;2023-02-11T16:18:35;8.20;99.90
51567;DHT22;37657;53.182;5.638;2023-02-11T16:21:02;8.10;99.90
51567;DHT22;37657;53.182;5.638;2023-02-11T16:23:33;8.10;99.90
51567;DHT22;37657;53.182;5.638;2023-02-11T16:26:03;8.00;99.90
51567;DHT22;37657;53.182;5.638;2023-02-11T16:28:34;7.90;99.90
51567;DHT22;37657;53.182;5.638;2023-02-11T16:31:00;7.90;99.90
51567;DHT22;37657;53.182;5.638;2023-02-11T16:33:26;7.90;99.90
51567;DHT22;37657;53.182;5.638;2023-02-11T16:35:53;7.80;99.90
51567;DHT22;37657;53.182;5.638;2023-02-11T16:38:18;7.80;99.90
51567;DHT22;37657;53.182;5.638;2023-02-11T16:40:44;7.80;99.90
51567;DHT22;37657;53.182;5.638;2023-02-11T16:43:13;7.80;99.90
51567;DHT22;37657;53.182;5.638;2023-02-11T16:45:39;7.90;99.90
51567;DHT22;37657;53.182;5.638;2023-02-11T16:48:08;7.80;99.90
51567;DHT22;37657;53.182;5.638;2023-02-11T16:50:36;7.60;99.90
51567;DHT22;37657;53.182;5.638;2023-02-11T16:53:03;7.60;99.90
51567;DHT22;37657;53.182;5.638;2023-02-11T16:55:32;7.60;99.90
51567;DHT22;37657;53.182;5.638;2023-02-11T16:57:57;7.50;99.90
51567;DHT22;37657;53.182;5.638;2023-02-11T17:00:23;7.50;99.90
51567;DHT22;37657;53.182;5.638;2023-02-11T17:02:49;7.40;99.90
51567;DHT22;37657;53.182;5.638;2023-02-11T17:05:18;7.40;99.90
51567;DHT22;37657;53.182;5.638;2023-02-11T17:07:45;7.30;99.90
51567;DHT22;37657;53.182;5.638;2023-02-11T17:10:15;7.30;99.90
51567;DHT22;37657;53.182;5.638;2023-02-11T17:12:42;7.20;99.90
51567;DHT22;37657;53.182;5.638;2023-02-11T17:15:08;7.30;99.90
51567;DHT22;37657;53.182;5.638;2023-02-11T17:17:33;7.20;99.90
51567;DHT22;37657;53.182;5.638;2023-02-11T17:19:59;7.20;99.90
51567;DHT22;37657;53.182;5.638;2023-02-11T17:22:24;7.20;99.90
51567;DHT22;37657;53.182;5.638;2023-02-11T17:24:50;7.20;99.90
51567;DHT22;37657;53.182;5.638;2023-02-11T17:27:16;7.20;99.90
51567;DHT22;37657;53.182;5.638;2023-02-11T17:29:41;7.20;99.90
51567;DHT22;37657;53.182;5.638;2023-02-11T17:32:07;7.30;99.90
51567;DHT22;37657;53.182;5.638;2023-02-11T17:34:32;7.30;99.90
51567;DHT22;37657;53.182;5.638;2023-02-11T17:36:58;7.50;99.90
51567;DHT22;37657;53.182;5.638;2023-02-11T17:39:25;7.50;99.90
51567;DHT22;37657;53.182;5.638;2023-02-11T17:41:50;7.40;99.90
51567;DHT22;37657;53.182;5.638;2023-02-11T17:44:16;7.40;99.90
51567;DHT22;37657;53.182;5.638;2023-02-11T17:46:42;7.50;99.90
51567;DHT22;37657;53.182;5.638;2023-02-11T17:49:10;7.50;99.90